Time;durP1;ratioP1;P1;durP2;ratioP2;P2;SDS_P1;SDS_P2;PMS_P1;PMS_P2;Temp;Humidity;BMP_temperature;BMP_pressure;BME280_temperature;BME280_humidity;BME280_pressure;Samples;Min_cycle;Max_cycle;Signal;HPM_P1;HPM_P2
2022/05/01 00:00:09;;;;;;;19.80;10.88;;;;;;;10.65;65.89;102233.63;3586399;39;20158;-65
2022/05/01 00:02:35;;;;;;;15.43;11.15;;;;;;;10.64;65.13;102247.13;3580267;40;20338;-66
2022/05/01 00:05:01;;;;;;;13.50;11.35;;;;;;;10.63;65.24;102240.00;3581366;40;20052;-65
2022/05/01 00:07:28;;;;;;;12.80;10.43;;;;;;;10.67;65.47;102241.63;3578646;39;20483;-68
2022/05/01 00:09:54;;;;;;;15.75;10.95;;;;;;;10.66;65.00;102243.47;3578467;39;20074;-65
2022/05/01 00:12:19;;;;;;;16.25;10.77;;;;;;;10.67;65.36;102253.25;3580925;40;20044;-65
2022/05/01 00:14:45;;;;;;;13.90;10.55;;;;;;;10.68;64.79;102249.63;3574511;39;20283;-65
2022/05/01 00:17:11;;;;;;;14.63;11.63;;;;;;;10.64;65.23;102241.75;3580934;40;20387;-65
2022/05/01 00:19:37;;;;;;;13.00;11.05;;;;;;;10.60;65.71;102238.31;3583921;40;20114;-65
2022/05/01 00:22:02;;;;;;;14.80;11.10;;;;;;;10.62;65.28;102246.31;3579379;39;20145;-64
2022/05/01 00:24:28;;;;;;;15.45;11.25;;;;;;;10.54;65.65;102230.50;3589293;40;20476;-66
2022/05/01 00:26:54;;;;;;;13.38;11.18;;;;;;;10.59;65.53;102233.88;3582634;39;20075;-65
2022/05/01 00:29:20;;;;;;;13.88;10.65;;;;;;;10.49;66.15;102221.72;3584635;40;20052;-66
2022/05/01 00:31:45;;;;;;;13.65;10.80;;;;;;;10.58;65.44;102239.31;3576688;39;20213;-67
2022/05/01 00:36:55;;;;;;;;;;;;;;;9.95;66.14;102135.06;3576220;39;20152;-66
2022/05/01 00:39:20;;;;;;;14.15;10.73;;;;;;;10.55;65.39;102240.28;3581150;40;19928;-66
2022/05/01 00:41:46;;;;;;;12.50;10.93;;;;;;;10.50;66.27;102225.28;3578031;39;20056;-66
2022/05/01 00:44:16;;;;;;;15.32;11.70;;;;;;;10.56;65.33;102235.78;3580998;40;20346;-66
2022/05/01 00:46:51;;;;;;;13.10;11.70;;;;;;;10.52;65.93;102231.47;3568645;39;20323;-66
2022/05/01 00:49:19;;;;;;;18.52;11.40;;;;;;;10.58;66.38;102233.94;3580412;40;20063;-66
2022/05/01 00:51:52;;;;;;;15.27;11.70;;;;;;;10.43;66.05;102209.41;3576705;39;20055;-66
2022/05/01 00:54:23;;;;;;;13.20;11.25;;;;;;;10.55;66.21;102226.84;3580794;40;20141;-66
2022/05/01 00:56:53;;;;;;;16.50;11.82;;;;;;;10.57;66.16;102232.19;3575186;39;20233;-66
2022/05/01 00:59:21;;;;;;;16.40;12.45;;;;;;;10.54;65.61;102225.13;3585939;40;20066;-66
2022/05/01 01:01:50;;;;;;;14.18;11.88;;;;;;;10.54;66.04;102233.19;3574615;39;20257;-66
2022/05/01 01:04:16;;;;;;;14.63;11.43;;;;;;;10.35;66.58;102200.75;3580566;40;20449;-65
2022/05/01 01:06:43;;;;;;;16.17;12.25;;;;;;;10.51;65.86;102221.66;3580595;40;20059;-67
2022/05/01 01:09:11;;;;;;;15.57;12.10;;;;;;;10.48;65.68;102211.03;3577019;39;20399;-66
2022/05/01 01:11:38;;;;;;;14.45;11.40;;;;;;;10.51;66.40;102219.84;3578686;39;20426;-66
2022/05/01 01:14:06;;;;;;;14.05;11.25;;;;;;;10.45;66.18;102209.34;3583887;39;20784;-65
2022/05/01 01:16:34;;;;;;;17.42;11.88;;;;;;;10.50;66.46;102227.97;3576317;39;20048;-63
2022/05/01 01:19:05;;;;;;;15.55;11.40;;;;;;;10.50;65.54;102217.22;3576940;40;20068;-63
2022/05/01 01:21:31;;;;;;;12.93;11.40;;;;;;;10.45;66.02;102215.59;3582354;40;20074;-63
2022/05/01 01:23:57;;;;;;;18.63;12.40;;;;;;;10.34;65.55;102193.63;3576357;39;20710;-64
2022/05/01 01:26:24;;;;;;;14.13;11.60;;;;;;;10.47;65.26;102218.22;3583764;40;20046;-63
2022/05/01 01:28:52;;;;;;;14.65;11.38;;;;;;;10.48;66.11;102216.41;3578586;39;20066;-64
2022/05/01 01:31:41;;;;;;;15.27;11.18;;;;;;;10.50;66.02;102211.84;3582251;40;20133;-64
2022/05/01 01:34:12;;;;;;;14.38;11.48;;;;;;;10.43;66.30;102212.09;3583273;39;20366;-64
2022/05/01 01:36:40;;;;;;;17.58;11.98;;;;;;;10.46;65.76;102216.47;3580479;40;20126;-63
2022/05/01 01:39:06;;;;;;;14.45;11.10;;;;;;;10.47;65.90;102217.38;3576858;39;20111;-64
2022/05/01 01:41:35;;;;;;;15.90;11.60;;;;;;;10.43;66.10;102213.88;3580701;39;20060;-62
2022/05/01 01:44:02;;;;;;;14.60;11.55;;;;;;;10.24;66.16;102184.13;3582306;39;20952;-64
2022/05/01 01:46:28;;;;;;;14.70;11.75;;;;;;;10.39;66.47;102223.88;3581667;39;20264;-63
2022/05/01 01:48:54;;;;;;;14.05;11.23;;;;;;;10.34;66.21;102198.13;3574327;39;20068;-64
2022/05/01 01:51:20;;;;;;;15.98;12.30;;;;;;;10.36;66.90;102207.88;3583711;39;20127;-64
2022/05/01 01:53:46;;;;;;;16.77;12.57;;;;;;;10.34;66.39;102212.47;3578434;40;20048;-63
2022/05/01 01:56:12;;;;;;;17.38;12.95;;;;;;;10.25;66.96;102201.16;3575732;39;20084;-64
2022/05/01 01:58:41;;;;;;;17.95;13.07;;;;;;;10.22;66.74;102210.19;3583129;40;20488;-63
2022/05/01 02:01:10;;;;;;;19.17;12.85;;;;;;;10.25;66.79;102214.59;3580070;39;20048;-64
2022/05/01 02:03:36;;;;;;;15.75;12.82;;;;;;;10.22;67.20;102211.06;3573584;39;20051;-62
2022/05/01 02:06:06;;;;;;;15.52;13.15;;;;;;;10.21;66.83;102201.28;3583097;40;20138;-63
2022/05/01 02:08:34;;;;;;;15.77;12.85;;;;;;;10.26;66.98;102216.34;3580850;40;20052;-62
2022/05/01 02:11:03;;;;;;;17.67;12.70;;;;;;;10.16;67.97;102203.25;3576662;39;20052;-64
2022/05/01 02:13:28;;;;;;;16.85;13.43;;;;;;;10.19;67.17;102213.00;3585043;40;20064;-63
2022/05/01 02:15:54;;;;;;;18.20;13.35;;;;;;;10.17;67.23;102212.19;3575940;39;20348;-64
2022/05/01 02:18:19;;;;;;;18.50;12.80;;;;;;;10.13;67.23;102207.84;3574428;39;20048;-64
2022/05/01 02:23:30;;;;;;;16.08;13.07;;;;;;;10.06;67.52;102193.78;3580677;40;20093;-63
2022/05/01 02:25:55;;;;;;;16.17;13.60;;;;;;;10.07;68.42;102197.34;3575057;39;20181;-64
2022/05/01 02:28:21;;;;;;;17.25;13.25;;;;;;;10.08;68.03;102204.47;3572553;40;20052;-64
2022/05/01 02:30:51;;;;;;;16.52;13.27;;;;;;;10.05;68.48;102199.19;3578209;40;20056;-64
2022/05/01 02:33:18;;;;;;;17.05;12.93;;;;;;;9.92;68.16;102183.53;3580244;39;20113;-63
2022/05/01 02:35:44;;;;;;;17.35;13.35;;;;;;;9.91;67.85;102179.09;3571917;39;20052;-62
2022/05/01 02:38:11;;;;;;;17.33;13.10;;;;;;;10.00;68.60;102196.69;3580958;40;20126;-64
2022/05/01 02:40:37;;;;;;;15.63;13.23;;;;;;;9.95;68.13;102183.41;3580441;40;20122;-61
2022/05/01 02:43:04;;;;;;;16.67;14.18;;;;;;;9.96;68.54;102185.19;3575002;39;20592;-63
2022/05/01 02:45:29;;;;;;;18.10;14.40;;;;;;;9.98;68.62;102182.44;3580368;39;20391;-62
2022/05/01 02:47:55;;;;;;;17.85;14.10;;;;;;;9.94;68.23;102179.00;3578618;40;20064;-64
2022/05/01 02:50:22;;;;;;;15.70;13.40;;;;;;;9.91;68.48;102181.78;3570088;39;20055;-64
2022/05/01 02:52:51;;;;;;;16.70;13.98;;;;;;;9.88;68.84;102181.91;3581344;39;20056;-64
2022/05/01 02:55:21;;;;;;;16.67;13.93;;;;;;;9.81;68.40;102169.66;3580893;40;20158;-64
2022/05/01 02:57:47;;;;;;;16.42;13.48;;;;;;;9.80;68.32;102178.66;3574741;39;20111;-64
2022/05/01 03:00:17;;;;;;;20.08;14.13;;;;;;;9.84;68.73;102182.09;3580076;40;20048;-63
2022/05/01 03:02:49;;;;;;;18.52;14.45;;;;;;;9.74;69.50;102173.50;3577759;40;20056;-63
2022/05/01 03:05:16;;;;;;;18.48;14.27;;;;;;;9.74;69.57;102178.88;3572398;39;20044;-63
2022/05/01 03:07:42;;;;;;;17.67;14.52;;;;;;;9.66;69.23;102164.84;3578664;40;20045;-62
2022/05/01 03:10:10;;;;;;;18.83;14.40;;;;;;;9.71;69.39;102178.97;3579684;40;20116;-63
2022/05/01 03:12:39;;;;;;;17.73;13.73;;;;;;;9.61;69.29;102164.13;3579025;39;20060;-62
2022/05/01 03:15:07;;;;;;;18.20;14.25;;;;;;;9.67;69.88;102182.69;3579892;39;20056;-64
2022/05/01 03:23:04;;;;;;;20.45;14.88;;;;;;;9.49;70.19;102166.31;3580309;39;20141;-66
2022/05/01 03:25:30;;;;;;;19.25;15.05;;;;;;;9.47;69.96;102167.31;3581896;40;20060;-62
2022/05/01 03:27:55;;;;;;;19.35;14.80;;;;;;;9.44;69.96;102165.59;3582750;40;20052;-63
2022/05/01 03:30:22;;;;;;;21.30;14.90;;;;;;;9.36;70.04;102140.00;3566311;40;20056;-64
2022/05/01 03:32:48;;;;;;;20.58;15.30;;;;;;;9.43;70.32;102161.19;3580004;40;20091;-63
2022/05/01 03:35:15;;;;;;;21.55;15.85;;;;;;;9.31;69.98;102142.81;3583982;40;20404;-64
2022/05/01 03:37:42;;;;;;;20.55;15.23;;;;;;;9.41;70.00;102154.97;3571595;39;20055;-62
2022/05/01 03:40:14;;;;;;;18.45;15.48;;;;;;;9.32;70.04;102141.00;3581886;40;20068;-64
2022/05/01 03:42:40;;;;;;;21.95;17.05;;;;;;;9.16;70.51;102119.22;3582685;40;20056;-62
2022/05/01 03:45:06;;;;;;;22.92;16.30;;;;;;;9.33;70.26;102154.38;3576141;39;20068;-64
2022/05/01 03:47:32;;;;;;;20.52;16.02;;;;;;;9.29;70.18;102150.03;3580312;40;20052;-62
2022/05/01 03:49:58;;;;;;;20.30;15.63;;;;;;;9.25;70.98;102154.63;3581190;40;20096;-64
2022/05/01 03:52:24;;;;;;;18.52;15.35;;;;;;;9.21;71.39;102163.72;3573422;39;20062;-64
2022/05/01 03:54:50;;;;;;;19.58;15.48;;;;;;;8.79;71.18;102101.72;3579055;40;20056;-62
2022/05/01 03:57:15;;;;;;;20.88;16.00;;;;;;;9.18;70.75;102157.59;3585428;40;20059;-64
2022/05/01 03:59:41;;;;;;;20.00;16.33;;;;;;;9.13;70.96;102155.06;3577857;39;20059;-62
2022/05/01 04:02:07;;;;;;;21.70;16.83;;;;;;;9.07;71.40;102155.31;3578344;40;20071;-64
2022/05/01 04:04:32;;;;;;;22.13;16.33;;;;;;;9.06;71.43;102165.13;3581788;40;20047;-62
2022/05/01 04:06:58;;;;;;;21.02;16.70;;;;;;;9.02;71.58;102166.16;3582460;40;20890;-64
2022/05/01 04:09:24;;;;;;;20.08;16.75;;;;;;;8.94;71.67;102160.19;3572703;39;20044;-64
2022/05/01 04:11:52;;;;;;;23.75;17.05;;;;;;;8.92;71.48;102156.69;3579711;40;20100;-63
2022/05/01 04:14:18;;;;;;;22.25;16.35;;;;;;;8.89;72.32;102161.28;3583470;40;20058;-63
2022/05/01 04:16:44;;;;;;;21.60;17.88;;;;;;;8.81;71.82;102156.16;3575801;39;20052;-62
2022/05/01 04:19:11;;;;;;;24.17;18.80;;;;;;;8.81;72.55;102166.88;3583042;40;21441;-64
2022/05/01 04:21:37;;;;;;;22.23;17.85;;;;;;;8.76;72.14;102159.00;3582334;40;20295;-62
2022/05/01 04:24:05;;;;;;;20.85;17.90;;;;;;;8.72;72.60;102160.03;3635992;22;20161;-64
2022/05/01 04:26:30;;;;;;;22.23;17.67;;;;;;;8.68;72.91;102160.16;3591097;39;20055;-63
2022/05/01 04:31:40;;;;;;;22.58;18.17;;;;;;;8.54;73.02;102145.41;3586563;39;20470;-64
2022/05/01 04:34:06;;;;;;;21.85;17.35;;;;;;;8.42;72.86;102134.22;3580717;39;20068;-63
2022/05/01 04:36:32;;;;;;;24.55;18.08;;;;;;;8.49;72.92;102144.69;3583764;40;20059;-62
2022/05/01 04:38:57;;;;;;;22.45;18.83;;;;;;;8.53;72.76;102157.06;3573372;39;20064;-64
2022/05/01 04:41:23;;;;;;;24.65;19.27;;;;;;;8.53;73.20;102159.75;3581597;40;20418;-61
2022/05/01 04:43:49;;;;;;;24.08;18.90;;;;;;;8.51;72.90;102166.09;3580684;40;20067;-61
2022/05/01 04:46:15;;;;;;;27.23;19.55;;;;;;;8.48;73.58;102160.81;3583541;40;20125;-61
2022/05/01 04:48:40;;;;;;;25.98;20.25;;;;;;;7.88;73.08;102067.09;3573302;39;20052;-60
2022/05/01 04:51:06;;;;;;;23.60;19.85;;;;;;;8.24;73.95;102141.84;3580865;40;20066;-62
2022/05/01 04:53:31;;;;;;;25.45;19.25;;;;;;;8.37;74.08;102163.78;3577623;39;20061;-63
2022/05/01 04:57:04;;;;;;;27.95;20.55;;;;;;;8.38;73.92;102165.59;3574775;39;20115;-62
2022/05/01 04:58:42;;;;;;;25.60;20.10;;;;;;;8.38;73.49;102176.31;3579277;39;20139;-61
2022/05/01 05:01:08;;;;;;;27.52;21.70;;;;;;;8.34;74.44;102171.91;3584100;40;20677;-62
2022/05/01 05:03:33;;;;;;;30.92;20.65;;;;;;;8.34;74.74;102170.13;3565296;40;20079;-61
2022/05/01 05:06:00;;;;;;;26.20;19.85;;;;;;;8.36;74.50;102162.03;3581006;40;20058;-62
2022/05/01 05:11:11;;;;;;;27.17;21.80;;;;;;;8.40;74.47;102165.53;3575060;39;20132;-60
2022/05/01 05:13:36;;;;;;;29.48;22.75;;;;;;;8.38;74.09;102173.63;3582734;40;20066;-60
2022/05/01 05:16:02;;;;;;;26.98;22.45;;;;;;;8.40;74.14;102173.56;3582927;40;20063;-62
2022/05/01 05:18:28;;;;;;;28.27;22.75;;;;;;;8.41;74.14;102175.34;3575043;39;20052;-62
2022/05/01 05:20:53;;;;;;;27.85;22.10;;;;;;;8.31;74.37;102147.94;3581903;40;20125;-63
2022/05/01 05:23:19;;;;;;;29.20;21.85;;;;;;;8.44;73.77;102173.44;3582817;40;20055;-63
2022/05/01 05:25:45;;;;;;;28.48;23.33;;;;;;;8.42;73.69;102161.88;3571530;39;20051;-61
2022/05/01 05:28:10;;;;;;;28.52;21.17;;;;;;;8.51;74.64;102180.34;3582556;39;20055;-63
2022/05/01 05:30:36;;;;;;;28.30;21.42;;;;;;;8.55;73.72;102182.00;3580387;40;20048;-62
2022/05/01 05:33:04;;;;;;;27.52;22.65;;;;;;;8.61;74.23;102186.31;3578890;40;20224;-63
2022/05/01 05:35:30;;;;;;;30.00;22.67;;;;;;;8.62;74.57;102184.50;3573469;39;20052;-62
2022/05/01 05:37:55;;;;;;;28.48;22.63;;;;;;;8.68;74.14;102184.31;3582173;40;20713;-63
2022/05/01 05:40:21;;;;;;;29.52;22.10;;;;;;;8.71;73.94;102189.56;3580290;40;20052;-61
2022/05/01 05:42:46;;;;;;;27.45;22.10;;;;;;;8.74;73.32;102187.66;3571658;39;20056;-62
2022/05/01 05:45:13;;;;;;;27.70;22.02;;;;;;;8.80;73.54;102184.78;3582887;40;20055;-62
2022/05/01 05:47:39;;;;;;;26.92;22.67;;;;;;;8.87;74.14;102188.13;3580468;40;20052;-60
2022/05/01 05:50:05;;;;;;;28.48;22.60;;;;;;;8.98;72.97;102190.47;3574401;39;20070;-62
2022/05/01 05:52:32;;;;;;;25.33;21.35;;;;;;;9.03;73.19;102192.06;3582203;40;20050;-61
2022/05/01 05:54:58;;;;;;;26.30;22.50;;;;;;;9.14;72.18;102198.88;3579742;40;20621;-63
2022/05/01 05:57:23;;;;;;;25.45;22.20;;;;;;;9.20;72.20;102199.56;3582605;40;20059;-63
2022/05/01 05:59:49;;;;;;;28.25;22.67;;;;;;;9.24;72.12;102193.16;3571264;39;20100;-63
2022/05/01 06:02:15;;;;;;;28.77;22.65;;;;;;;9.29;71.77;102198.34;3579872;40;20688;-63
2022/05/01 06:04:41;;;;;;;27.98;21.85;;;;;;;9.42;71.05;102202.38;3577210;39;20043;-63
2022/05/01 06:07:07;;;;;;;27.67;22.60;;;;;;;9.50;70.90;102194.91;3582243;40;20065;-62
2022/05/01 06:09:32;;;;;;;28.25;22.15;;;;;;;9.63;71.29;102199.84;3584392;40;20063;-63
2022/05/01 06:11:58;;;;;;;26.25;22.73;;;;;;;9.72;70.70;102202.22;3581724;39;20301;-61
2022/05/01 06:14:24;;;;;;;24.27;21.10;;;;;;;9.85;70.18;102203.50;3576617;39;20055;-62
2022/05/01 06:16:49;;;;;;;27.25;21.33;;;;;;;9.94;69.34;102192.44;3579588;39;20052;-63
2022/05/01 06:19:15;;;;;;;24.35;21.23;;;;;;;10.12;69.31;102206.13;3573719;39;20071;-62
2022/05/01 06:21:41;;;;;;;27.35;21.63;;;;;;;10.11;68.29;102170.28;3583881;40;20052;-62
2022/05/01 06:24:07;;;;;;;24.02;20.17;;;;;;;10.39;67.24;102199.69;3579056;40;20426;-61
2022/05/01 06:26:33;;;;;;;25.17;20.00;;;;;;;10.56;67.78;102200.84;3581649;40;20398;-61
2022/05/01 06:28:59;;;;;;;24.60;19.77;;;;;;;10.73;66.87;102205.56;3576360;39;20058;-62
2022/05/01 06:31:26;;;;;;;23.65;20.38;;;;;;;10.89;65.52;102199.50;3576570;39;20059;-63
2022/05/01 06:33:52;;;;;;;25.42;19.98;;;;;;;11.06;65.62;102205.97;3581253;40;20051;-62
2022/05/01 06:36:18;;;;;;;24.25;19.75;;;;;;;11.25;64.35;102201.56;3574891;39;20433;-63
2022/05/01 06:38:45;;;;;;;23.25;19.38;;;;;;;11.45;64.88;102207.91;3572602;40;20096;-62
2022/05/01 06:41:12;;;;;;;25.50;20.40;;;;;;;11.63;63.96;102215.19;3578462;40;20052;-63
2022/05/01 06:43:38;;;;;;;22.67;17.25;;;;;;;11.75;62.59;102211.97;3581827;40;20075;-63
2022/05/01 06:46:04;;;;;;;22.75;18.80;;;;;;;11.85;62.50;102202.53;3574279;39;20079;-62
2022/05/01 06:48:30;;;;;;;22.30;19.48;;;;;;;12.01;63.20;102207.25;3579928;39;20052;-63
2022/05/01 06:50:55;;;;;;;21.77;18.90;;;;;;;12.14;62.88;102218.34;3577236;39;20120;-62
2022/05/01 06:53:21;;;;;;;24.45;20.23;;;;;;;12.37;61.71;102206.47;3575433;39;20067;-63
2022/05/01 06:55:47;;;;;;;22.85;18.20;;;;;;;12.63;60.25;102211.50;3583750;39;20056;-63
2022/05/01 06:58:13;;;;;;;25.15;18.02;;;;;;;12.83;59.48;102207.84;3580845;40;20093;-63
2022/05/01 07:00:38;;;;;;;20.52;17.80;;;;;;;13.05;59.27;102213.03;3575382;39;20045;-63
2022/05/01 07:03:04;;;;;;;22.45;17.60;;;;;;;13.17;58.55;102207.03;3580931;40;20067;-62
2022/05/01 07:05:29;;;;;;;21.55;17.88;;;;;;;13.24;58.73;102210.28;3581829;40;20059;-62
2022/05/01 07:07:55;;;;;;;22.27;17.25;;;;;;;13.31;58.53;102213.59;3580536;39;20052;-61
2022/05/01 07:10:22;;;;;;;19.77;17.38;;;;;;;13.37;57.46;102210.56;3580375;40;20641;-63
2022/05/01 07:12:48;;;;;;;22.23;17.75;;;;;;;13.33;58.03;102214.38;3582815;39;20093;-62
2022/05/01 07:15:15;;;;;;;21.02;17.23;;;;;;;13.27;58.45;102206.59;3575365;39;20684;-63
2022/05/01 07:17:41;;;;;;;21.30;17.15;;;;;;;13.19;57.59;102202.44;3583217;40;20059;-63
2022/05/01 07:20:08;;;;;;;21.27;17.08;;;;;;;13.19;58.34;102217.75;3581406;40;20067;-62
2022/05/01 07:22:34;;;;;;;23.25;18.15;;;;;;;13.21;58.89;102215.84;3580024;39;20052;-63
2022/05/01 07:24:59;;;;;;;21.85;17.75;;;;;;;13.19;58.20;102213.25;3581739;40;20288;-62
2022/05/01 07:27:25;;;;;;;20.17;17.55;;;;;;;13.14;58.98;102207.19;3579030;40;20075;-64
2022/05/01 07:29:51;;;;;;;21.27;16.55;;;;;;;13.13;57.97;102213.53;3571856;39;20052;-61
2022/05/01 07:32:16;;;;;;;20.85;16.17;;;;;;;13.11;58.46;102218.13;3579927;40;20733;-63
2022/05/01 07:34:42;;;;;;;20.85;17.63;;;;;;;13.08;57.96;102218.28;3584577;39;20055;-62
2022/05/01 07:37:07;;;;;;;20.85;16.55;;;;;;;13.17;57.53;102223.22;3579492;40;20071;-61
2022/05/01 07:39:33;;;;;;;18.70;14.95;;;;;;;13.23;56.92;102222.06;3578297;39;20052;-62
2022/05/01 07:41:59;;;;;;;19.55;15.23;;;;;;;13.27;57.41;102222.81;3580271;40;20051;-61
2022/05/01 07:44:25;;;;;;;18.13;14.80;;;;;;;13.33;57.09;102225.19;3582362;40;20067;-62
2022/05/01 07:46:53;;;;;;;20.50;14.57;;;;;;;13.37;55.83;102222.25;3574370;39;20047;-61
2022/05/01 07:49:20;;;;;;;18.52;15.10;;;;;;;13.34;57.27;102200.78;3582156;39;20135;-62
2022/05/01 07:51:46;;;;;;;18.27;14.90;;;;;;;13.43;56.29;102202.16;3582791;40;20117;-62
2022/05/01 07:54:12;;;;;;;20.10;15.63;;;;;;;13.59;56.41;102222.00;3574589;39;20911;-63
2022/05/01 07:56:39;;;;;;;19.20;15.65;;;;;;;13.67;56.31;102222.50;3583904;40;20052;-63
2022/05/01 07:59:05;;;;;;;16.88;14.77;;;;;;;13.84;55.99;102223.44;3580314;40;20074;-61
2022/05/01 08:01:30;;;;;;;17.85;14.98;;;;;;;14.19;55.65;102220.66;3572028;39;20121;-62
2022/05/01 08:06:41;;;;;;;17.92;14.55;;;;;;;14.81;53.30;102210.84;3583324;40;20392;-63
2022/05/01 08:09:07;;;;;;;17.75;13.65;;;;;;;15.16;52.95;102207.91;3575008;39;20094;-62
2022/05/01 08:11:32;;;;;;;17.55;13.18;;;;;;;15.36;51.21;102210.34;3586412;40;20051;-64
2022/05/01 08:13:58;;;;;;;18.17;11.98;;;;;;;15.53;49.74;102203.88;3581049;40;20450;-61
2022/05/01 08:16:25;;;;;;;13.05;11.65;;;;;;;15.73;49.32;102206.31;3574990;39;20703;-63
2022/05/01 08:21:36;;;;;;;14.50;11.65;;;;;;;15.91;48.56;102201.56;3582927;40;20047;-62
2022/05/01 08:24:03;;;;;;;16.15;12.05;;;;;;;16.05;47.75;102203.44;3578077;39;20267;-62
2022/05/01 08:26:31;;;;;;;11.55;9.35;;;;;;;16.33;46.20;102198.94;3581281;39;20056;-63
2022/05/01 08:28:58;;;;;;;10.07;8.48;;;;;;;16.55;44.44;102196.56;3579336;40;20052;-61
2022/05/01 08:31:23;;;;;;;11.43;8.60;;;;;;;16.88;43.65;102196.25;3573724;39;20060;-63
2022/05/01 08:33:49;;;;;;;10.77;8.15;;;;;;;16.99;42.31;102172.91;3582294;40;20079;-62
2022/05/01 08:36:15;;;;;;;13.07;9.00;;;;;;;17.33;42.81;102196.81;3577745;39;20224;-64
2022/05/01 08:38:42;;;;;;;12.15;7.82;;;;;;;17.52;41.92;102192.84;3583628;40;20059;-62
2022/05/01 08:41:09;;;;;;;8.43;6.90;;;;;;;17.72;39.07;102197.75;3568831;40;20357;-61
2022/05/01 08:43:36;;;;;;;8.65;7.30;;;;;;;17.76;39.19;102199.28;3582270;40;20052;-62
2022/05/01 08:46:39;;;;;;;8.32;7.15;;;;;;;17.89;39.15;102201.16;3582469;39;20067;-61
2022/05/01 08:49:09;;;;;;;7.88;6.30;;;;;;;18.12;38.19;102204.97;3572304;39;20039;-62
2022/05/01 08:51:41;;;;;;;7.88;6.35;;;;;;;18.30;37.77;102199.09;3575499;39;20494;-63
2022/05/01 08:54:12;;;;;;;6.28;5.03;;;;;;;18.39;35.84;102196.66;3580182;39;20115;-61
2022/05/01 08:56:43;;;;;;;7.78;4.60;;;;;;;18.03;34.39;102201.06;3579727;39;20096;-62
2022/05/01 08:59:15;;;;;;;6.15;4.97;;;;;;;17.65;36.36;102196.44;3571890;40;20060;-61
2022/05/01 09:01:44;;;;;;;6.03;5.07;;;;;;;17.42;36.03;102194.47;3581083;40;20373;-62
2022/05/01 09:04:12;;;;;;;6.13;4.80;;;;;;;17.00;36.38;102196.38;3562549;40;20055;-62
2022/05/01 09:06:41;;;;;;;6.82;5.10;;;;;;;16.83;36.15;102192.94;3574701;39;20059;-62
2022/05/01 09:09:09;;;;;;;6.13;4.63;;;;;;;16.64;36.53;102195.13;3579093;40;20414;-62
2022/05/01 09:14:24;;;;;;;6.22;5.63;;;;;;;16.23;38.22;102190.50;3581066;40;20827;-61
2022/05/01 09:17:14;;;;;;;7.47;4.88;;;;;;;16.00;38.60;102198.28;3581918;40;20079;-62
2022/05/01 09:19:43;;;;;;;6.18;5.13;;;;;;;15.94;38.95;102193.22;3574456;39;20048;-62
2022/05/01 09:22:08;;;;;;;6.82;5.53;;;;;;;15.89;39.01;102189.97;3575204;39;20096;-62
2022/05/01 09:24:34;;;;;;;8.48;5.65;;;;;;;15.92;39.10;102189.75;3583882;40;20049;-63
2022/05/01 09:27:01;;;;;;;8.48;5.70;;;;;;;15.96;38.23;102180.47;3569024;40;20386;-62
2022/05/01 09:29:34;;;;;;;7.32;5.65;;;;;;;16.32;38.83;102184.50;3571024;40;20046;-61
2022/05/01 09:32:03;;;;;;;6.93;5.47;;;;;;;16.74;37.89;102198.09;3578914;40;20070;-61
2022/05/01 09:34:43;;;;;;;7.28;6.18;;;;;;;17.04;36.03;102189.78;3580808;40;20048;-63
2022/05/01 09:37:19;;;;;;;7.82;5.93;;;;;;;17.48;35.07;102197.63;3571259;39;20044;-62
2022/05/01 09:39:52;;;;;;;10.43;6.03;;;;;;;17.91;34.47;102191.91;3585526;40;20045;-61
2022/05/01 09:42:21;;;;;;;6.30;5.32;;;;;;;18.07;35.14;102199.84;3576002;39;20099;-62
2022/05/01 09:45:14;;;;;;;8.20;5.38;;;;;;;18.28;34.08;102195.59;3579620;39;20114;-62
2022/05/01 09:47:45;;;;;;;6.60;5.50;;;;;;;18.53;34.29;102188.34;3583871;40;20058;-63
2022/05/01 09:50:14;;;;;;;6.80;5.50;;;;;;;18.28;32.91;102192.88;3580401;40;20056;-62
2022/05/01 09:53:01;;;;;;;7.50;5.32;;;;;;;18.34;32.66;102188.84;3566362;40;20044;-62
2022/05/01 09:55:29;;;;;;;8.57;5.72;;;;;;;17.94;34.45;102185.38;3584418;39;20048;-63
2022/05/01 09:58:14;;;;;;;7.80;5.88;;;;;;;17.89;34.49;102188.44;3574127;39;20103;-60
2022/05/01 10:00:47;;;;;;;6.88;5.38;;;;;;;17.88;35.27;102191.25;3572303;40;20060;-62
2022/05/01 10:03:28;;;;;;;10.50;5.90;;;;;;;17.55;35.63;102160.88;3565403;40;20112;-62
2022/05/01 10:05:58;;;;;;;11.63;5.72;;;;;;;17.58;35.62;102187.84;3580217;40;20060;-62
2022/05/01 10:08:25;;;;;;;7.20;5.57;;;;;;;17.38;36.05;102178.38;3572939;39;20723;-62
2022/05/01 10:10:59;;;;;;;9.07;5.75;;;;;;;17.40;34.99;102180.97;3586076;39;20707;-61
2022/05/01 10:13:27;;;;;;;6.95;5.80;;;;;;;17.36;34.62;102174.88;3569781;39;20328;-62
2022/05/01 10:15:54;;;;;;;7.03;5.50;;;;;;;17.48;34.38;102183.16;3580737;40;20313;-61
2022/05/01 10:18:24;;;;;;;6.80;6.05;;;;;;;17.50;35.77;102179.34;3578617;40;20059;-63
2022/05/01 10:20:50;;;;;;;6.60;5.45;;;;;;;17.14;34.90;102103.97;3582051;40;20117;-61
2022/05/01 10:23:17;;;;;;;10.35;5.93;;;;;;;17.81;34.89;102174.50;3610168;22;20055;-65
2022/05/01 10:25:58;;;;;;;7.68;5.93;;;;;;;17.84;33.83;102174.28;3590898;39;20055;-65
2022/05/01 10:28:42;;;;;;;7.22;5.93;;;;;;;17.72;34.52;102178.72;3587347;39;20148;-65
2022/05/01 10:35:16;;;;;;;9.07;5.90;;;;;;;17.53;34.60;102164.66;3595046;39;20050;-65
2022/05/01 10:38:23;;;;;;;7.45;5.90;;;;;;;17.40;35.12;102161.94;3596974;39;20058;-65
2022/05/01 10:40:55;;;;;;;7.68;5.78;;;;;;;17.27;34.23;102152.88;3593761;39;20056;-65
2022/05/01 10:43:57;;;;;;;6.95;5.55;;;;;;;17.31;34.56;102148.97;3589265;39;20066;-65
2022/05/01 10:46:22;;;;;;;7.93;5.60;;;;;;;17.29;35.44;102154.53;3589090;39;20136;-66
2022/05/01 10:48:48;;;;;;;8.75;5.47;;;;;;;17.21;34.56;102154.19;3595203;39;20063;-65
2022/05/01 10:51:36;;;;;;;7.63;5.88;;;;;;;17.10;35.19;102159.50;3594361;39;20063;-65
2022/05/01 10:54:13;;;;;;;6.20;5.45;;;;;;;16.87;35.62;102151.06;3585805;39;20135;-66
2022/05/01 10:56:49;;;;;;;7.47;6.32;;;;;;;16.65;34.88;102142.53;3594057;39;20082;-65
2022/05/01 10:59:30;;;;;;;7.25;6.15;;;;;;;16.44;36.61;102147.56;3587135;39;20111;-65
2022/05/01 11:02:03;;;;;;;6.90;6.20;;;;;;;16.23;37.00;102117.25;3590621;39;20367;-66
2022/05/01 11:04:38;;;;;;;10.07;6.32;;;;;;;16.29;35.47;102119.56;3590988;39;20048;-65
2022/05/01 11:07:05;;;;;;;9.95;6.28;;;;;;;16.38;35.74;102135.25;3593993;39;21296;-65
2022/05/01 11:09:38;;;;;;;8.15;6.10;;;;;;;16.34;37.34;102133.72;3583325;39;20100;-65
2022/05/01 11:12:10;;;;;;;9.65;6.35;;;;;;;16.24;35.94;102143.44;3591494;39;20066;-65
2022/05/01 11:14:59;;;;;;;8.88;6.10;;;;;;;16.21;36.34;102139.06;3589693;39;20267;-65
2022/05/01 11:17:36;;;;;;;7.85;6.18;;;;;;;16.24;36.72;102135.31;3587020;39;20119;-65
2022/05/01 11:20:10;;;;;;;7.68;6.20;;;;;;;16.23;36.46;102126.25;3592467;39;20097;-66
2022/05/01 11:22:37;;;;;;;8.43;5.93;;;;;;;16.27;37.03;102107.97;3592679;39;20043;-67
2022/05/01 11:25:04;;;;;;;6.85;6.18;;;;;;;15.74;36.66;101995.69;3572946;39;20063;-65
2022/05/01 11:27:50;;;;;;;7.65;6.40;;;;;;;16.28;35.42;102081.69;3591677;39;20060;-64
2022/05/01 11:30:37;;;;;;;7.63;6.10;;;;;;;16.58;35.76;102114.94;3588663;39;20719;-64
2022/05/01 11:33:11;;;;;;;8.13;6.32;;;;;;;16.61;36.79;102105.72;3592275;39;20067;-66
2022/05/01 11:36:04;;;;;;;8.48;5.88;;;;;;;16.67;36.03;102095.31;3593227;39;20079;-65
2022/05/01 11:38:39;;;;;;;6.43;5.65;;;;;;;16.88;35.08;102114.75;3596003;39;20169;-65
2022/05/01 11:41:06;;;;;;;6.82;5.80;;;;;;;16.94;36.14;102108.91;3582392;39;20075;-66
2022/05/01 11:43:35;;;;;;;8.68;7.00;;;;;;;16.80;35.19;102095.38;3591866;39;20109;-65
2022/05/01 11:46:04;;;;;;;8.75;6.70;;;;;;;16.43;35.12;102051.69;3586281;39;20076;-66
2022/05/01 11:48:31;;;;;;;9.90;5.95;;;;;;;16.56;34.21;102059.91;3595189;39;20474;-66
2022/05/01 11:50:58;;;;;;;10.15;6.57;;;;;;;16.65;35.51;102097.28;3592255;39;20047;-66